createdAt,value
2022-12-03T00:00:15.853Z,30.4
2022-12-03T00:03:16.023Z,31.6
2022-12-03T00:06:15.862Z,31.4
2022-12-03T00:09:15.875Z,32.8
2022-12-03T00:12:15.874Z,33.8
2022-12-03T00:15:15.906Z,32.5
2022-12-03T00:18:15.894Z,33.3
2022-12-03T00:21:15.899Z,32.9
2022-12-03T00:24:15.909Z,33.4
2022-12-03T00:27:15.915Z,32.7
2022-12-03T00:30:15.922Z,32.4
2022-12-03T00:33:15.979Z,32.7
2022-12-03T00:36:15.946Z,32.8
2022-12-03T00:39:15.946Z,32.8
2022-12-03T00:42:15.956Z,31.5
2022-12-03T00:45:15.965Z,30.6
2022-12-03T00:48:15.970Z,30.8
2022-12-03T00:51:16.001Z,31.6
2022-12-03T00:54:15.980Z,32.3
2022-12-03T00:57:15.993Z,31.9
2022-12-03T01:00:15.996Z,31
2022-12-03T01:03:16.006Z,31.1
2022-12-03T01:06:16.010Z,30.1
2022-12-03T01:09:16.049Z,29.4
2022-12-03T01:12:16.037Z,28.3
2022-12-03T01:15:16.040Z,29.5
2022-12-03T01:18:16.050Z,30
2022-12-03T01:21:16.062Z,30.1
2022-12-03T01:24:16.062Z,30.1
2022-12-03T01:27:16.094Z,30.4
2022-12-03T01:30:16.078Z,31.6
2022-12-03T01:33:16.104Z,32.2
2022-12-03T01:36:16.094Z,31.3
2022-12-03T01:39:16.102Z,32.8
2022-12-03T01:42:16.112Z,34
2022-12-03T01:45:16.147Z,34.7
2022-12-03T01:48:16.128Z,34.6
2022-12-03T01:51:16.135Z,34.8
2022-12-03T01:54:16.145Z,34.8
2022-12-03T01:57:16.155Z,34.8
2022-12-03T02:00:16.162Z,34.2
2022-12-03T02:03:16.295Z,35.2
2022-12-03T02:06:16.178Z,34.9
2022-12-03T02:09:16.187Z,35.6
2022-12-03T02:12:16.196Z,34.7
2022-12-03T02:15:16.205Z,36.5
2022-12-03T02:18:16.221Z,35.7
2022-12-03T02:21:16.421Z,36
2022-12-03T02:24:16.260Z,35.9
2022-12-03T02:27:16.243Z,36.9
2022-12-03T02:30:16.258Z,38.7
2022-12-03T02:33:16.265Z,36.3
2022-12-03T02:36:16.270Z,37.7
2022-12-03T02:39:16.304Z,38.3
2022-12-03T02:42:16.298Z,40
2022-12-03T02:45:16.299Z,38.3
2022-12-03T02:48:16.306Z,37.8
2022-12-03T02:51:16.321Z,37.7
2022-12-03T02:54:16.330Z,38
2022-12-03T02:57:16.369Z,36.5
2022-12-03T03:00:16.349Z,37.4
2022-12-03T03:03:16.361Z,36.8
2022-12-03T03:06:16.374Z,36.1
2022-12-03T03:09:16.374Z,35.5
2022-12-03T03:12:16.389Z,36.4
2022-12-03T03:15:16.422Z,36.5
2022-12-03T03:18:16.415Z,36.1
2022-12-03T03:21:16.438Z,35.2
2022-12-03T03:24:16.494Z,35.5
2022-12-03T03:27:16.445Z,34.7
2022-12-03T03:30:16.628Z,35.1
2022-12-03T03:33:16.564Z,34.6
2022-12-03T03:36:16.715Z,35.4
2022-12-03T03:39:16.500Z,35
2022-12-03T03:42:16.496Z,35.1
2022-12-03T03:45:16.513Z,34.6
2022-12-03T03:48:16.523Z,34.7
2022-12-03T03:51:16.566Z,33.8
2022-12-03T03:54:16.553Z,33.6
2022-12-03T03:57:16.561Z,34.7
2022-12-03T04:00:16.578Z,34
2022-12-03T04:03:16.583Z,34.7
2022-12-03T04:06:16.598Z,35
2022-12-03T04:09:16.630Z,34.8
2022-12-03T04:12:16.617Z,34.1
2022-12-03T04:15:16.625Z,34
2022-12-03T04:18:16.637Z,34
2022-12-03T04:21:16.652Z,34.5
2022-12-03T04:24:16.668Z,34.7
2022-12-03T04:27:16.699Z,35.2
2022-12-03T04:30:16.689Z,34
2022-12-03T04:33:16.698Z,33.8
2022-12-03T04:36:16.717Z,33.1
2022-12-03T04:39:16.724Z,33.4
2022-12-03T04:42:16.736Z,33.5
2022-12-03T04:45:16.773Z,35
2022-12-03T04:48:16.762Z,35
2022-12-03T04:51:16.777Z,36.2
2022-12-03T04:54:16.783Z,35.3
2022-12-03T04:57:16.799Z,36.5
2022-12-03T05:00:16.811Z,34.8
2022-12-03T05:03:16.849Z,34.9
2022-12-03T05:06:16.840Z,35.1
2022-12-03T05:09:16.856Z,36.1
2022-12-03T05:12:16.867Z,36.6
2022-12-03T05:15:16.878Z,37.1
2022-12-03T05:18:16.895Z,35.6
2022-12-03T05:21:16.932Z,36.5
2022-12-03T05:24:16.927Z,35.5
2022-12-03T05:27:21.885Z,37.2
2022-12-03T05:30:16.950Z,37
2022-12-03T05:33:16.965Z,37.5
2022-12-03T05:36:16.993Z,38.1
2022-12-03T05:39:17.018Z,38.4
2022-12-03T05:42:17.009Z,37.8
2022-12-03T05:45:17.028Z,37.5
2022-12-03T05:48:17.041Z,38.2
2022-12-03T05:51:17.061Z,37.8
2022-12-03T05:54:17.072Z,37.8
2022-12-03T05:57:17.116Z,38.4
2022-12-03T06:00:17.106Z,38.4
2022-12-03T06:03:17.230Z,38.6
2022-12-03T06:06:17.135Z,37.8
2022-12-03T06:09:17.153Z,40.4
2022-12-03T06:12:17.172Z,38.4
2022-12-03T06:15:17.292Z,37.5
2022-12-03T06:18:17.203Z,38.5
2022-12-03T06:21:17.217Z,39.5
2022-12-03T06:24:17.233Z,38.1
2022-12-03T06:27:17.250Z,38.4
2022-12-03T06:30:17.268Z,38.2
2022-12-03T06:33:17.312Z,38.2
2022-12-03T06:36:21.495Z,37.4
2022-12-03T06:39:17.320Z,37.4
2022-12-03T06:42:17.331Z,38.7
2022-12-03T06:45:17.347Z,38.8
2022-12-03T06:48:17.367Z,38
2022-12-03T06:51:17.408Z,37.3
2022-12-03T06:54:17.405Z,36.3
2022-12-03T06:57:17.422Z,37.3
2022-12-03T07:00:17.434Z,37.3
2022-12-03T07:03:17.522Z,37.2
2022-12-03T07:06:17.486Z,36.7
2022-12-03T07:09:17.532Z,36.9
2022-12-03T07:12:17.520Z,37.3
2022-12-03T07:15:17.542Z,36.5
2022-12-03T07:18:17.550Z,37.1
2022-12-03T07:21:17.566Z,36.9
2022-12-03T07:24:17.593Z,37.4
2022-12-03T07:27:17.626Z,36.6
2022-12-03T07:30:17.626Z,38.2
2022-12-03T07:33:17.646Z,37.9
2022-12-03T07:36:17.655Z,37.8
2022-12-03T07:39:17.673Z,38.2
2022-12-03T07:42:17.686Z,37.8
2022-12-03T07:45:17.727Z,37.8
2022-12-03T07:48:17.725Z,38.7
2022-12-03T07:51:17.742Z,38
2022-12-03T07:54:17.764Z,38.9
2022-12-03T07:57:17.774Z,38.4
2022-12-03T08:00:17.808Z,38.4
2022-12-03T08:03:17.850Z,39.6
2022-12-03T08:06:17.846Z,38
2022-12-03T08:09:17.861Z,39.4
2022-12-03T08:12:17.879Z,39.7
2022-12-03T08:15:17.898Z,39.3
2022-12-03T08:18:17.928Z,39.1
2022-12-03T08:21:17.964Z,39.4
2022-12-03T08:24:17.960Z,38.9
2022-12-03T08:27:17.989Z,40.9
2022-12-03T08:30:17.990Z,40.5
2022-12-03T08:33:18.010Z,40.4
2022-12-03T08:36:18.025Z,39.8
2022-12-03T08:39:18.068Z,39.9
2022-12-03T08:42:18.065Z,40.2
2022-12-03T08:45:18.081Z,39.6
2022-12-03T08:48:18.106Z,39.9
2022-12-03T08:51:18.118Z,39.5
2022-12-03T08:54:18.137Z,39.2
2022-12-03T08:57:18.181Z,39.1
2022-12-03T09:00:18.265Z,38.1
2022-12-03T09:03:18.188Z,39.2
2022-12-03T09:06:18.205Z,39.6
2022-12-03T09:09:18.224Z,38.9
2022-12-03T09:12:18.235Z,39.5
2022-12-03T09:15:18.278Z,39.3
2022-12-03T09:18:18.264Z,38.9
2022-12-03T09:21:18.275Z,38.9
2022-12-03T09:24:18.293Z,38.5
2022-12-03T09:27:18.312Z,39.5
2022-12-03T09:30:18.316Z,39.5
2022-12-03T09:33:18.357Z,38.6
2022-12-03T09:36:18.344Z,37.4
2022-12-03T09:39:18.363Z,38.6
2022-12-03T09:42:18.375Z,38.5
2022-12-03T09:45:18.385Z,38.4
2022-12-03T09:48:18.407Z,37.8
2022-12-03T09:51:18.436Z,37.9
2022-12-03T09:54:18.427Z,37.4
2022-12-03T09:57:18.468Z,37.5
2022-12-03T10:00:18.475Z,38.2
2022-12-03T10:03:18.480Z,37.8
2022-12-03T10:06:18.478Z,37.5
2022-12-03T10:09:18.521Z,38.2
2022-12-03T10:12:18.508Z,36.9
2022-12-03T10:15:18.523Z,37.8
2022-12-03T10:18:18.533Z,37.7
2022-12-03T10:21:18.550Z,37.6
2022-12-03T10:24:18.558Z,37.7
2022-12-03T10:27:18.598Z,38.1
2022-12-03T10:30:18.650Z,37.4
2022-12-03T10:33:19.205Z,36.7
2022-12-03T10:36:18.613Z,37.1
2022-12-03T10:39:18.623Z,37.8
2022-12-03T10:42:18.640Z,37.2
2022-12-03T10:45:18.678Z,37.8
2022-12-03T10:48:18.669Z,37.7
2022-12-03T10:51:18.687Z,38.2
2022-12-03T10:54:18.695Z,37.1
2022-12-03T10:57:18.707Z,38
2022-12-03T11:00:18.915Z,36.6
2022-12-03T11:03:18.824Z,36.7
2022-12-03T11:06:18.750Z,37.7
2022-12-03T11:09:18.764Z,37.7
2022-12-03T11:12:18.776Z,37.5
2022-12-03T11:15:18.788Z,37.7
2022-12-03T11:18:18.800Z,36
2022-12-03T11:21:18.842Z,36.7
2022-12-03T11:24:18.826Z,36
2022-12-03T11:27:18.847Z,36.9
2022-12-03T11:30:18.852Z,36.8
2022-12-03T11:33:18.870Z,36.6
2022-12-03T11:36:24.397Z,36
2022-12-03T11:39:18.921Z,35.9
2022-12-03T11:42:18.900Z,36.3
2022-12-03T11:45:18.923Z,35.4
2022-12-03T11:48:18.934Z,35.4
2022-12-03T11:51:18.945Z,35.1
2022-12-03T11:54:18.958Z,36.2
2022-12-03T11:57:19.066Z,35.9
2022-12-03T12:00:18.986Z,36.6
2022-12-03T12:03:19.077Z,35.2
2022-12-03T12:06:19.010Z,36.5
2022-12-03T12:09:19.031Z,36.4
2022-12-03T12:12:19.040Z,36.9
2022-12-03T12:15:19.076Z,35.7
2022-12-03T12:18:19.065Z,36.1
2022-12-03T12:21:19.090Z,36.7
2022-12-03T12:24:19.089Z,36.6
2022-12-03T12:27:19.104Z,37.3
2022-12-03T12:30:19.123Z,35.4
2022-12-03T12:33:19.149Z,35.8
2022-12-03T12:36:19.140Z,36.5
2022-12-03T12:39:19.153Z,37.1
2022-12-03T12:42:19.166Z,37.9
2022-12-03T12:45:19.180Z,36.4
2022-12-03T12:48:19.186Z,37.6
2022-12-03T12:51:19.227Z,37
2022-12-03T12:54:19.213Z,37
2022-12-03T12:57:19.228Z,36.7
2022-12-03T13:00:19.241Z,37.5
2022-12-03T13:03:19.251Z,38.1
2022-12-03T13:06:19.262Z,38.7
2022-12-03T13:09:19.321Z,38.2
2022-12-03T13:12:19.293Z,38.4
2022-12-03T13:15:19.306Z,38.1
2022-12-03T13:18:19.322Z,38.1
2022-12-03T13:21:19.332Z,38.7
2022-12-03T13:24:19.348Z,38.4
2022-12-03T13:27:19.384Z,38.3
2022-12-03T13:30:19.376Z,38.4
2022-12-03T13:33:19.384Z,38.9
2022-12-03T13:36:19.403Z,37.7
2022-12-03T13:39:19.413Z,38.6
2022-12-03T13:42:19.425Z,39
2022-12-03T13:45:19.459Z,38.4
2022-12-03T13:48:19.454Z,39.1
2022-12-03T13:51:19.469Z,38.5
2022-12-03T13:54:19.479Z,38.2
2022-12-03T13:57:19.488Z,39.9
2022-12-03T14:00:19.505Z,40.9
2022-12-03T14:03:19.542Z,40
2022-12-03T14:06:19.528Z,39.6
2022-12-03T14:09:19.542Z,37.7
2022-12-03T14:12:19.552Z,36.7
2022-12-03T14:15:19.564Z,37
2022-12-03T14:18:19.576Z,36.9
2022-12-03T14:21:19.612Z,37.2
2022-12-03T14:24:19.595Z,37.6
2022-12-03T14:27:19.607Z,38.9
2022-12-03T14:30:19.622Z,36.6
2022-12-03T14:33:19.629Z,37.6
2022-12-03T14:36:19.642Z,39
2022-12-03T14:39:19.678Z,36.8
2022-12-03T14:42:19.661Z,36.5
2022-12-03T14:45:19.673Z,36.2
2022-12-03T14:48:19.696Z,38.5
2022-12-03T14:51:19.692Z,42.2
2022-12-03T14:54:19.705Z,37.4
2022-12-03T14:57:19.742Z,36.5
2022-12-03T15:00:19.727Z,36.7
2022-12-03T15:03:19.738Z,37.2
2022-12-03T15:06:19.741Z,37.1
2022-12-03T15:09:19.752Z,36.4
2022-12-03T15:12:19.769Z,36.7
2022-12-03T15:15:19.801Z,37
2022-12-03T15:18:19.785Z,36.6
2022-12-03T15:21:19.789Z,37.8
2022-12-03T15:24:19.798Z,36.7
2022-12-03T15:27:19.808Z,35.6
2022-12-03T15:30:19.816Z,35.7
2022-12-03T15:33:19.852Z,35.3
2022-12-03T15:36:19.837Z,35.2
2022-12-03T15:39:19.844Z,36.5
2022-12-03T15:42:19.854Z,36.3
2022-12-03T15:45:19.866Z,36.4
2022-12-03T15:48:19.872Z,35.2
2022-12-03T15:51:19.908Z,35.8
2022-12-03T15:54:19.889Z,35.3
2022-12-03T15:57:19.894Z,36.1
2022-12-03T16:00:19.901Z,37.8
2022-12-03T16:03:19.963Z,37
2022-12-03T16:06:19.913Z,36.3
2022-12-03T16:09:23.932Z,35.2
2022-12-03T16:12:19.933Z,35.2
2022-12-03T16:15:25.217Z,36.1
2022-12-03T16:18:19.953Z,35.6
2022-12-03T16:21:25.072Z,37.1
2022-12-03T16:24:19.966Z,36.4
2022-12-03T16:27:24.135Z,36.8
2022-12-03T16:30:19.975Z,37.3
2022-12-03T16:33:24.118Z,37.3
2022-12-03T16:36:19.994Z,36.3
2022-12-03T16:39:19.997Z,36.8
2022-12-03T16:42:20.001Z,36.6
2022-12-03T16:45:20.096Z,36.4
2022-12-03T16:48:20.021Z,36.1
2022-12-03T16:51:20.029Z,35.9
2022-12-03T16:54:20.175Z,36.3
2022-12-03T16:57:20.034Z,34.8
2022-12-03T17:00:20.047Z,35.6
2022-12-03T17:03:20.159Z,33.9
2022-12-03T17:06:20.052Z,33.3
2022-12-03T17:09:20.066Z,33.3
2022-12-03T17:12:20.066Z,32.7
2022-12-03T17:15:20.072Z,33.2
2022-12-03T17:18:20.078Z,34.8
2022-12-03T17:21:20.105Z,34.5
2022-12-03T17:24:20.082Z,35.3
2022-12-03T17:27:20.085Z,35.8
2022-12-03T17:30:20.096Z,35.1
2022-12-03T17:33:20.091Z,36.2
2022-12-03T17:36:20.092Z,37
2022-12-03T17:39:20.125Z,35.8
2022-12-03T17:42:20.098Z,36
2022-12-03T17:45:20.097Z,36.9
2022-12-03T17:48:20.101Z,36.1
2022-12-03T17:51:20.109Z,36.9
2022-12-03T17:54:20.113Z,36.3
2022-12-03T17:57:20.143Z,35.5
2022-12-03T18:00:20.327Z,34.9
2022-12-03T18:03:20.143Z,36.8
2022-12-03T18:06:20.163Z,35
2022-12-03T18:09:20.176Z,36.4
2022-12-03T18:12:20.198Z,36.8
2022-12-03T18:15:20.240Z,35.1
2022-12-03T18:18:20.236Z,35.1
2022-12-03T18:21:20.252Z,35.7
2022-12-03T18:24:20.277Z,36.4
2022-12-03T18:27:20.301Z,37.5
2022-12-03T18:30:20.314Z,37.2
2022-12-03T18:33:20.349Z,38.1
2022-12-03T18:36:20.353Z,38
2022-12-03T18:39:20.374Z,39.8
2022-12-03T18:42:20.393Z,39.1
2022-12-03T18:45:20.409Z,40.1
2022-12-03T18:48:20.413Z,40.8
2022-12-03T18:51:20.451Z,40.3
2022-12-03T18:54:20.449Z,39.3
2022-12-03T18:57:20.447Z,40.3
2022-12-03T19:00:20.464Z,40.3
2022-12-03T19:03:20.557Z,39.9
2022-12-03T19:06:20.497Z,41
2022-12-03T19:09:20.542Z,40.2
2022-12-03T19:12:20.512Z,41.1
2022-12-03T19:15:20.518Z,40.4
2022-12-03T19:18:20.522Z,39.8
2022-12-03T19:21:20.530Z,41.5
2022-12-03T19:24:24.938Z,41.4
2022-12-03T19:27:20.566Z,41
2022-12-03T19:30:20.535Z,40.6
2022-12-03T19:33:23.794Z,40.5
2022-12-03T19:36:20.555Z,39.5
2022-12-03T19:39:20.546Z,41
2022-12-03T19:42:20.548Z,41.1
2022-12-03T19:45:20.584Z,40.9
2022-12-03T19:48:20.554Z,40.7
2022-12-03T19:51:33.910Z,41
2022-12-03T19:54:20.565Z,41.3
2022-12-03T19:57:23.384Z,41.1
2022-12-03T20:00:20.572Z,40.6
2022-12-03T20:03:20.597Z,41.4
2022-12-03T20:06:20.579Z,41.1
2022-12-03T20:09:20.583Z,41.1
2022-12-03T20:12:20.582Z,41.3
2022-12-03T20:15:20.585Z,41.3
2022-12-03T20:18:20.596Z,40
2022-12-03T20:21:20.617Z,41.6
2022-12-03T20:24:20.595Z,41.3
2022-12-03T20:27:22.941Z,41
2022-12-03T20:30:20.600Z,41.3
2022-12-03T20:33:20.605Z,40.6
2022-12-03T20:36:20.614Z,40.7
2022-12-03T20:39:20.646Z,41.3
2022-12-03T20:42:20.620Z,40.5
2022-12-03T20:45:20.625Z,40.9
2022-12-03T20:48:20.631Z,40.8
2022-12-03T20:51:20.631Z,41.1
2022-12-03T20:54:20.635Z,42.1
2022-12-03T20:57:20.662Z,40.3
2022-12-03T21:00:20.638Z,40.8
2022-12-03T21:03:20.642Z,41.5
2022-12-03T21:06:20.647Z,40.9
2022-12-03T21:09:20.652Z,41.7
2022-12-03T21:12:20.653Z,41.8
2022-12-03T21:15:20.679Z,40.5
2022-12-03T21:18:20.657Z,40.5
2022-12-03T21:21:20.657Z,39.9
2022-12-03T21:24:20.659Z,40
2022-12-03T21:27:21.922Z,40.3
2022-12-03T21:30:20.661Z,40.9
2022-12-03T21:33:20.685Z,40.2
2022-12-03T21:36:20.674Z,39.5
2022-12-03T21:39:20.681Z,40.6
2022-12-03T21:42:35.204Z,40.5
2022-12-03T21:45:20.705Z,40.2
2022-12-03T21:48:20.713Z,39.8
2022-12-03T21:51:20.758Z,40.1
2022-12-03T21:54:20.746Z,39.8
2022-12-03T21:57:20.752Z,41.1
2022-12-03T22:00:20.765Z,40.5
2022-12-03T22:03:20.788Z,40.6
2022-12-03T22:06:20.790Z,39.9
2022-12-03T22:09:26.248Z,40.9
2022-12-03T22:12:20.821Z,39.8
2022-12-03T22:15:20.831Z,40.5
2022-12-03T22:18:20.842Z,39.9
2022-12-03T22:21:20.859Z,39.3
2022-12-03T22:24:20.882Z,39.5
2022-12-03T22:27:20.904Z,41
2022-12-03T22:30:20.900Z,39.7
2022-12-03T22:33:20.911Z,39
2022-12-03T22:36:21.850Z,40.4
2022-12-03T22:39:20.935Z,39
2022-12-03T22:42:20.949Z,39.5
2022-12-03T22:45:20.988Z,39.1
2022-12-03T22:48:20.986Z,40
2022-12-03T22:51:20.991Z,39.8
2022-12-03T22:54:24.045Z,39.4
2022-12-03T22:57:21.020Z,39.3
2022-12-03T23:00:21.034Z,39.2
2022-12-03T23:03:21.114Z,39.2
2022-12-03T23:06:21.062Z,39.9
2022-12-03T23:09:21.080Z,39.7
2022-12-03T23:12:21.095Z,39.9
2022-12-03T23:15:21.113Z,39.4
2022-12-03T23:18:21.125Z,40.1
2022-12-03T23:21:25.505Z,40.1
2022-12-03T23:24:21.157Z,39.5
2022-12-03T23:27:21.173Z,40.1
2022-12-03T23:30:21.195Z,40.1
2022-12-03T23:33:21.208Z,40
2022-12-03T23:36:21.225Z,41.1
2022-12-03T23:39:21.265Z,39.7
2022-12-03T23:42:21.255Z,39.9
2022-12-03T23:45:21.276Z,40.4
2022-12-03T23:48:21.291Z,41
2022-12-03T23:51:21.307Z,40.8
2022-12-03T23:54:21.323Z,41.1
2022-12-03T23:57:21.365Z,40.8
